Time;durP1;ratioP1;P1;durP2;ratioP2;P2;SDS_P1;SDS_P2;PMS_P1;PMS_P2;Temp;Humidity;BMP_temperature;BMP_pressure;BME280_temperature;BME280_humidity;BME280_pressure;Samples;Min_cycle;Max_cycle;Signal;HPM_P1;HPM_P2
2022/10/02 00:02:27;;;;;;;28.70;5.33;;;12.20;99.90;;;;;;5060899;28;20120;-78
2022/10/02 00:04:58;;;;;;;29.23;5.28;;;12.20;99.90;;;;;;5066449;28;20020;-75
2022/10/02 00:07:33;;;;;;;38.73;5.23;;;12.10;99.90;;;;;;5059130;28;20059;-79
2022/10/02 00:10:11;;;;;;;31.57;6.23;;;12.20;99.90;;;;;;5094443;28;20032;-77
2022/10/02 00:12:40;;;;;;;32.53;4.60;;;12.30;99.90;;;;;;5095500;28;20059;-77
2022/10/02 00:15:14;;;;;;;27.80;5.07;;;12.20;99.90;;;;;;5079886;28;20035;-78
2022/10/02 00:17:45;;;;;;;33.03;6.73;;;12.20;99.90;;;;;;5078017;28;20060;-78
2022/10/02 00:20:13;;;;;;;30.40;6.13;;;12.20;99.90;;;;;;5067040;28;20108;-77
2022/10/02 00:23:18;;;;;;;28.27;4.90;;;12.20;99.90;;;;;;5095208;28;20029;-77
2022/10/02 00:25:51;;;;;;;31.80;5.67;;;12.30;99.90;;;;;;5064105;28;20441;-75
2022/10/02 00:28:50;;;;;;;17.40;4.43;;;12.20;99.90;;;;;;5071450;28;20039;-75
2022/10/02 00:31:24;;;;;;;34.37;4.77;;;12.20;99.90;;;;;;5063442;28;20036;-78
2022/10/02 00:34:19;;;;;;;39.43;6.07;;;12.20;99.90;;;;;;5071156;28;20032;-77
2022/10/02 00:36:56;;;;;;;33.90;5.43;;;12.20;99.90;;;;;;5076325;28;20038;-78
2022/10/02 00:39:43;;;;;;;33.13;5.90;;;12.20;99.90;;;;;;5075893;28;20057;-78
2022/10/02 00:42:28;;;;;;;37.00;6.03;;;12.20;99.90;;;;;;5069301;28;20052;-78
2022/10/02 00:45:04;;;;;;;30.90;6.43;;;12.20;99.90;;;;;;5075662;28;20098;-76
2022/10/02 00:47:39;;;;;;;27.43;4.90;;;12.30;99.90;;;;;;5094268;28;20441;-76
2022/10/02 00:50:35;;;;;;;24.03;4.70;;;12.40;99.90;;;;;;5081044;28;20491;-79
2022/10/02 00:53:01;;;;;;;28.37;6.13;;;12.40;99.90;;;;;;5079399;28;20028;-77
2022/10/02 00:55:32;;;;;;;31.53;5.20;;;12.50;99.90;;;;;;5063475;28;20025;-76
2022/10/02 00:58:00;;;;;;;38.75;6.20;;;12.60;99.90;;;;;;5071200;28;20020;-76
2022/10/02 01:00:28;;;;;;;36.70;5.70;;;12.60;99.90;;;;;;5078003;28;20042;-78
2022/10/02 01:03:13;;;;;;;26.67;5.13;;;12.60;99.90;;;;;;5066304;28;20057;-74
2022/10/02 01:05:38;;;;;;;31.00;5.10;;;12.70;99.90;;;;;;5078669;28;20035;-77
2022/10/02 01:08:05;;;;;;;31.40;5.27;;;12.70;99.90;;;;;;5059814;28;20024;-76
2022/10/02 01:10:31;;;;;;;24.93;5.47;;;12.70;99.90;;;;;;5078939;28;20106;-77
2022/10/02 01:12:57;;;;;;;27.90;4.80;;;12.70;99.90;;;;;;5059044;28;20029;-78
2022/10/02 01:15:32;;;;;;;28.43;5.20;;;12.70;99.90;;;;;;5077352;28;20024;-76
2022/10/02 01:18:00;;;;;;;29.40;5.33;;;12.80;99.90;;;;;;5076295;28;20066;-78
2022/10/02 01:20:40;;;;;;;25.00;5.17;;;12.70;99.90;;;;;;5058501;28;20572;-77
2022/10/02 01:23:30;;;;;;;27.40;6.27;;;12.80;99.90;;;;;;5076241;28;20024;-78
2022/10/02 01:25:57;;;;;;;29.97;5.90;;;12.80;99.90;;;;;;5078517;28;20032;-76
2022/10/02 01:28:23;;;;;;;38.13;6.30;;;12.80;99.90;;;;;;5057733;28;20285;-76
2022/10/02 01:30:54;;;;;;;30.60;5.20;;;12.80;99.90;;;;;;5059636;28;20050;-75
2022/10/02 01:33:21;;;;;;;22.60;4.43;;;12.80;99.90;;;;;;5092983;28;20098;-78
2022/10/02 01:35:47;;;;;;;32.00;6.03;;;12.90;99.90;;;;;;5060560;28;20024;-78
2022/10/02 01:38:17;;;;;;;27.23;4.90;;;12.90;99.90;;;;;;5060913;28;20701;-78
2022/10/02 01:40:45;;;;;;;31.17;5.33;;;13.00;99.90;;;;;;5076388;28;20357;-78
2022/10/02 01:43:12;;;;;;;26.50;5.37;;;13.00;99.90;;;;;;5077830;28;20032;-76
2022/10/02 01:45:55;;;;;;;38.27;7.10;;;13.10;99.90;;;;;;5070819;28;20028;-78
2022/10/02 01:48:53;;;;;;;25.45;5.13;;;13.10;99.90;;;;;;5061622;28;20828;-76
2022/10/02 01:51:34;;;;;;;37.27;6.50;;;13.00;99.90;;;;;;5055016;28;20082;-78
2022/10/02 01:54:08;;;;;;;34.50;6.03;;;13.10;99.90;;;;;;5076911;28;20104;-77
2022/10/02 01:56:33;;;;;;;30.30;5.73;;;13.00;99.90;;;;;;5075143;28;20525;-78
2022/10/02 01:59:38;;;;;;;27.47;5.27;;;13.10;99.90;;;;;;5063586;28;20032;-78
2022/10/02 02:02:15;;;;;;;38.47;6.60;;;13.10;99.90;;;;;;5076121;28;20043;-76
2022/10/02 02:04:49;;;;;;;35.93;6.00;;;13.20;99.90;;;;;;5076386;28;20028;-78
2022/10/02 02:07:26;;;;;;;30.70;5.30;;;13.10;99.90;;;;;;5063800;28;20035;-77
2022/10/02 02:09:57;;;;;;;23.27;5.30;;;13.10;99.90;;;;;;5059446;28;20031;-76
2022/10/02 02:12:44;;;;;;;34.37;5.60;;;13.10;99.90;;;;;;5062849;28;20028;-77
2022/10/02 02:15:22;;;;;;;34.90;5.87;;;13.20;99.90;;;;;;5059122;28;20058;-76
2022/10/02 02:18:01;;;;;;;36.17;5.93;;;13.20;99.90;;;;;;5092931;28;20127;-77
2022/10/02 02:20:37;;;;;;;31.23;5.60;;;13.20;99.90;;;;;;5060482;28;20043;-76
2022/10/02 02:23:11;;;;;;;24.63;4.80;;;13.20;99.90;;;;;;5062255;28;20071;-77
2022/10/02 02:25:42;;;;;;;42.97;7.83;;;13.20;99.90;;;;;;5080029;28;20052;-76
2022/10/02 02:28:11;;;;;;;30.50;5.77;;;13.20;99.90;;;;;;5066920;28;20044;-77
2022/10/02 02:30:44;;;;;;;34.93;6.07;;;13.10;99.90;;;;;;5081742;28;20032;-77
2022/10/02 02:33:16;;;;;;;27.90;4.70;;;13.10;99.90;;;;;;5062511;28;20127;-76
2022/10/02 02:35:49;;;;;;;39.67;6.65;;;13.00;99.90;;;;;;5096537;28;20074;-77
2022/10/02 02:38:23;;;;;;;33.25;6.10;;;13.00;99.90;;;;;;5061716;28;20033;-77
2022/10/02 02:40:50;;;;;;;36.47;6.67;;;13.00;99.90;;;;;;5078958;28;20528;-77
2022/10/02 02:43:28;;;;;;;30.73;6.67;;;13.00;99.90;;;;;;5096603;28;20036;-78
2022/10/02 02:45:57;;;;;;;40.23;6.67;;;13.00;99.90;;;;;;5064165;28;20066;-77
2022/10/02 02:48:28;;;;;;;29.20;5.57;;;13.00;99.90;;;;;;5062252;28;20463;-76
2022/10/02 02:51:02;;;;;;;33.93;5.60;;;13.10;99.90;;;;;;5062914;28;20027;-78
2022/10/02 02:53:37;;;;;;;32.33;6.77;;;13.20;99.90;;;;;;5095524;28;20035;-78
2022/10/02 02:56:07;;;;;;;30.27;6.00;;;13.30;99.90;;;;;;5065087;28;20036;-76
2022/10/02 02:58:54;;;;;;;29.93;5.40;;;13.40;99.90;;;;;;5097246;28;20028;-80
2022/10/02 03:01:20;;;;;;;33.30;4.60;;;13.40;99.90;;;;;;5061131;28;20888;-76
2022/10/02 03:03:46;;;;;;;29.97;6.00;;;13.50;99.90;;;;;;5062449;28;20028;-79
2022/10/02 03:06:14;;;;;;;34.97;6.53;;;13.50;99.90;;;;;;5084064;28;20036;-78
2022/10/02 03:08:41;;;;;;;28.17;5.27;;;13.50;99.90;;;;;;5061070;28;20537;-78
2022/10/02 03:11:29;;;;;;;28.47;4.83;;;13.60;99.90;;;;;;5095199;28;20488;-79
2022/10/02 03:14:33;;;;;;;36.90;5.47;;;13.60;99.90;;;;;;5083264;28;20039;-76
2022/10/02 03:17:23;;;;;;;29.80;5.77;;;13.60;99.90;;;;;;4992395;28;21655;-77
2022/10/02 03:20:07;;;;;;;36.37;6.60;;;13.60;99.90;;;;;;4986316;28;20040;-77
2022/10/02 03:22:45;;;;;;;33.97;5.53;;;13.60;99.90;;;;;;5007749;28;20065;-78
2022/10/02 03:25:32;;;;;;;32.70;5.70;;;13.50;99.90;;;;;;4996173;28;20112;-78
2022/10/02 03:28:02;;;;;;;32.47;5.03;;;13.60;99.90;;;;;;4988589;28;20126;-76
2022/10/02 03:30:29;;;;;;;30.87;5.97;;;13.60;99.90;;;;;;4992054;28;20034;-78
2022/10/02 03:32:59;;;;;;;27.07;5.47;;;13.60;99.90;;;;;;4992654;28;20370;-78
2022/10/02 03:35:32;;;;;;;27.60;5.70;;;13.60;99.90;;;;;;4991113;28;20220;-77
2022/10/02 03:38:02;;;;;;;30.42;6.63;;;13.70;99.90;;;;;;4989289;28;20056;-76
2022/10/02 03:40:28;;;;;;;38.90;6.87;;;13.70;99.90;;;;;;4993138;28;20378;-77
2022/10/02 03:42:57;;;;;;;30.67;5.37;;;13.70;99.90;;;;;;5009410;28;20025;-78
2022/10/02 03:45:26;;;;;;;31.63;4.93;;;13.80;99.90;;;;;;5009269;28;20482;-78
2022/10/02 03:47:51;;;;;;;32.13;5.70;;;13.90;99.90;;;;;;5047396;28;20044;-79
2022/10/02 03:50:17;;;;;;;33.00;6.43;;;13.90;99.90;;;;;;5063483;28;20467;-77
2022/10/02 03:52:43;;;;;;;28.37;5.40;;;13.90;99.90;;;;;;5061259;28;20040;-77
2022/10/02 03:55:34;;;;;;;31.10;5.23;;;13.90;99.90;;;;;;5076973;28;20418;-78
2022/10/02 03:58:08;;;;;;;37.60;6.67;;;13.90;99.90;;;;;;5080249;28;20016;-78
2022/10/02 04:00:42;;;;;;;35.33;6.63;;;13.90;99.90;;;;;;5079311;28;20032;-78
2022/10/02 04:03:16;;;;;;;31.43;5.97;;;13.90;99.90;;;;;;5078811;28;20428;-77
2022/10/02 04:06:00;;;;;;;38.90;6.73;;;13.80;99.90;;;;;;5096079;28;20028;-78
2022/10/02 04:08:52;;;;;;;31.10;5.50;;;13.80;99.90;;;;;;5062795;28;20020;-77
2022/10/02 04:11:44;;;;;;;26.03;5.60;;;13.70;99.90;;;;;;5093843;27;20146;-77
2022/10/02 04:14:25;;;;;;;35.75;5.75;;;13.60;99.90;;;;;;5062020;28;20036;-78
2022/10/02 04:16:57;;;;;;;34.77;6.63;;;13.60;99.90;;;;;;5081503;28;20024;-77
2022/10/02 04:19:34;;;;;;;32.07;6.20;;;13.60;99.90;;;;;;5080311;28;20055;-77
2022/10/02 04:22:38;;;;;;;27.70;5.13;;;13.60;99.90;;;;;;5059649;28;20036;-76
2022/10/02 04:25:16;;;;;;;31.00;5.20;;;13.60;99.90;;;;;;5071284;28;20017;-78
2022/10/02 04:28:05;;;;;;;34.00;6.47;;;13.60;99.90;;;;;;5078626;28;20016;-76
2022/10/02 04:30:31;;;;;;;31.40;5.83;;;13.60;99.90;;;;;;5060011;28;20077;-76
2022/10/02 04:33:16;;;;;;;32.10;5.97;;;13.60;99.90;;;;;;5095149;28;20036;-78
2022/10/02 04:36:06;;;;;;;29.17;5.47;;;13.70;99.90;;;;;;5063036;28;20028;-78
2022/10/02 04:39:18;;;;;;;25.83;4.87;;;13.70;99.90;;;;;;5077001;28;20078;-77
2022/10/02 04:41:52;;;;;;;30.77;5.60;;;13.80;99.90;;;;;;5055516;28;20028;-78
2022/10/02 04:44:44;;;;;;;31.40;5.57;;;13.80;99.90;;;;;;5078243;28;20048;-77
2022/10/02 04:47:28;;;;;;;26.10;5.63;;;13.70;99.90;;;;;;5092371;28;20032;-76
2022/10/02 04:50:12;;;;;;;26.20;4.50;;;13.70;99.90;;;;;;5076149;28;20020;-78
2022/10/02 04:53:13;;;;;;;36.83;6.73;;;13.70;99.90;;;;;;5066135;28;20044;-75
2022/10/02 04:55:39;;;;;;;27.47;4.73;;;13.70;99.90;;;;;;5080085;28;21705;-76
2022/10/02 04:58:13;;;;;;;36.37;6.13;;;13.70;99.90;;;;;;5079973;28;20111;-75
2022/10/02 05:00:56;;;;;;;37.30;6.00;;;13.70;99.90;;;;;;5060794;28;20119;-77
2022/10/02 05:03:32;;;;;;;30.57;5.60;;;13.60;99.90;;;;;;5059580;28;20147;-80
2022/10/02 05:06:25;;;;;;;26.80;5.10;;;13.60;99.90;;;;;;5076073;28;20024;-77
2022/10/02 05:09:29;;;;;;;34.17;6.33;;;13.60;99.90;;;;;;5077342;28;20027;-78
2022/10/02 05:12:21;;;;;;;31.70;5.33;;;13.60;99.90;;;;;;5076523;28;20040;-77
2022/10/02 05:15:15;;;;;;;26.00;5.03;;;13.60;99.90;;;;;;5093346;28;20456;-77
2022/10/02 05:17:43;;;;;;;32.53;5.87;;;13.60;99.90;;;;;;5076115;28;20032;-77
2022/10/02 05:20:57;;;;;;;28.37;4.47;;;13.60;99.90;;;;;;5075438;28;20448;-77
2022/10/02 05:23:44;;;;;;;28.43;5.70;;;13.60;99.90;;;;;;5040268;28;20028;-78
2022/10/02 05:26:41;;;;;;;24.10;4.40;;;13.60;99.90;;;;;;5076178;28;20032;-78
2022/10/02 05:29:32;;;;;;;26.03;4.63;;;13.70;99.90;;;;;;5058722;28;20024;-77
2022/10/02 05:32:16;;;;;;;23.60;4.73;;;13.80;99.90;;;;;;5077823;28;20028;-77
2022/10/02 05:34:56;;;;;;;24.47;4.67;;;13.80;99.90;;;;;;5067957;28;20101;-76
2022/10/02 05:37:31;;;;;;;25.25;5.50;;;13.90;99.90;;;;;;5076955;28;20097;-76
2022/10/02 05:40:09;;;;;;;22.80;5.00;;;13.80;99.90;;;;;;5092278;28;20930;-78
2022/10/02 05:43:03;;;;;;;21.63;4.75;;;13.80;99.90;;;;;;5079859;28;20032;-77
2022/10/02 05:45:45;;;;;;;24.33;4.50;;;13.80;99.90;;;;;;5055443;28;20040;-78
2022/10/02 05:48:22;;;;;;;27.20;5.60;;;13.90;99.90;;;;;;5076252;28;20113;-77
2022/10/02 05:50:56;;;;;;;25.57;4.37;;;13.90;99.90;;;;;;5058646;28;20081;-77
2022/10/02 05:53:42;;;;;;;20.60;4.23;;;13.90;99.90;;;;;;5093120;28;20088;-78
2022/10/02 05:56:28;;;;;;;16.23;4.70;;;13.90;99.90;;;;;;5062370;28;20093;-78
2022/10/02 05:59:05;;;;;;;22.57;4.20;;;13.90;99.90;;;;;;5069517;28;20056;-77
2022/10/02 06:01:37;;;;;;;22.53;4.17;;;13.80;99.90;;;;;;5060058;28;20028;-75
2022/10/02 06:04:18;;;;;;;20.53;4.20;;;13.80;99.90;;;;;;5061337;28;20444;-78
2022/10/02 06:06:53;;;;;;;23.08;4.63;;;13.90;99.90;;;;;;5063124;28;20020;-75
2022/10/02 06:09:42;;;;;;;23.07;4.70;;;14.00;99.90;;;;;;5066394;28;20028;-78
2022/10/02 06:12:42;;;;;;;24.23;4.33;;;14.00;99.90;;;;;;5079724;28;20033;-75
2022/10/02 06:15:32;;;;;;;22.83;4.22;;;14.00;99.90;;;;;;5065685;28;20463;-76
2022/10/02 06:18:10;;;;;;;14.68;3.50;;;14.00;99.90;;;;;;5081203;28;20032;-78
2022/10/02 06:21:08;;;;;;;18.30;3.37;;;14.00;99.90;;;;;;5090967;28;20043;-78
2022/10/02 06:23:45;;;;;;;20.50;4.32;;;14.10;99.90;;;;;;5075166;28;20116;-80
2022/10/02 06:26:21;;;;;;;17.33;3.15;;;14.10;99.90;;;;;;5060100;28;20573;-78
2022/10/02 06:29:12;;;;;;;18.27;3.40;;;14.10;99.90;;;;;;5092925;28;20957;-79
2022/10/02 06:32:11;;;;;;;15.82;3.35;;;14.20;99.90;;;;;;5058639;28;20537;-78
2022/10/02 06:34:36;;;;;;;18.27;2.63;;;14.20;99.90;;;;;;5073873;28;20040;-80
2022/10/02 06:37:17;;;;;;;14.60;2.67;;;14.20;99.90;;;;;;5059659;28;20035;-79
2022/10/02 06:40:12;;;;;;;18.07;3.37;;;14.20;99.90;;;;;;5078346;28;20027;-78
2022/10/02 06:42:58;;;;;;;13.00;3.20;;;14.30;99.90;;;;;;5047895;28;20082;-79
2022/10/02 06:45:59;;;;;;;15.45;3.25;;;14.40;99.90;;;;;;5071107;28;20418;-78
2022/10/02 06:48:47;;;;;;;13.57;2.53;;;14.30;99.90;;;;;;5044189;28;20123;-77
2022/10/02 06:51:30;;;;;;;12.95;2.88;;;14.40;99.90;;;;;;5064519;28;20337;-77
2022/10/02 06:54:18;;;;;;;10.97;2.60;;;14.40;99.90;;;;;;5077862;28;20028;-79
2022/10/02 06:57:02;;;;;;;12.75;2.92;;;14.40;99.90;;;;;;5068625;28;20051;-78
2022/10/02 07:00:00;;;;;;;16.48;2.75;;;14.50;99.90;;;;;;5094390;28;20028;-79
2022/10/02 07:02:54;;;;;;;11.00;2.83;;;14.50;99.90;;;;;;5060763;28;20119;-79
2022/10/02 07:05:52;;;;;;;10.43;2.40;;;14.70;99.90;;;;;;5059706;28;20028;-79
2022/10/02 07:09:07;;;;;;;10.98;1.73;;;14.70;99.90;;;;;;5082091;28;20020;-78
2022/10/02 07:12:02;;;;;;;8.48;2.28;;;14.70;99.90;;;;;;4985698;28;20034;-79
2022/10/02 07:14:45;;;;;;;8.48;1.80;;;14.60;99.90;;;;;;4966618;28;20430;-79
2022/10/02 07:17:20;;;;;;;10.23;2.55;;;14.60;99.90;;;;;;5041854;28;20046;-77
2022/10/02 07:19:45;;;;;;;13.98;2.17;;;14.60;99.90;;;;;;5067148;28;20046;-79
2022/10/02 07:22:26;;;;;;;7.20;2.10;;;14.70;99.90;;;;;;5063982;28;20353;-78
2022/10/02 07:25:04;;;;;;;13.73;1.77;;;14.70;99.90;;;;;;5082675;28;20020;-80
2022/10/02 07:27:57;;;;;;;14.57;2.35;;;14.80;99.90;;;;;;5086332;28;20458;-78
2022/10/02 07:30:24;;;;;;;13.73;2.45;;;14.90;99.90;;;;;;5082652;28;20113;-79
2022/10/02 07:33:09;;;;;;;12.85;2.42;;;14.90;99.90;;;;;;5080484;28;20024;-78
2022/10/02 07:35:59;;;;;;;11.77;1.75;;;14.90;99.90;;;;;;5063347;28;20051;-79
2022/10/02 07:38:49;;;;;;;8.18;2.40;;;14.90;99.90;;;;;;5097214;28;20437;-77
2022/10/02 07:41:44;;;;;;;8.20;1.90;;;14.80;99.90;;;;;;5082287;28;20115;-78
2022/10/02 07:44:41;;;;;;;4.97;1.50;;;14.80;99.90;;;;;;5072752;28;20028;-78
2022/10/02 07:47:24;;;;;;;10.23;1.98;;;14.70;99.90;;;;;;5079200;28;20035;-78
2022/10/02 07:50:11;;;;;;;6.25;1.35;;;14.70;99.90;;;;;;5064067;28;20032;-77
2022/10/02 07:52:46;;;;;;;6.43;1.30;;;14.80;99.90;;;;;;5063017;28;20024;-78
2022/10/02 07:55:20;;;;;;;6.22;1.65;;;14.70;99.90;;;;;;5064654;28;20107;-78
2022/10/02 07:58:13;;;;;;;8.23;1.58;;;14.70;99.90;;;;;;5077286;28;20016;-78
2022/10/02 08:00:49;;;;;;;;;;;14.60;99.90;;;;;;5064594;28;20086;-77
2022/10/02 08:03:41;;;;;;;11.90;1.95;;;14.50;99.90;;;;;;5062350;28;19916;-78
2022/10/02 08:06:07;;;;;;;10.35;2.40;;;14.50;99.90;;;;;;5053761;28;20044;-78
2022/10/02 08:08:51;;;;;;;10.85;1.38;;;14.60;99.90;;;;;;5063087;28;20020;-78
2022/10/02 08:11:29;;;;;;;9.70;1.55;;;14.60;99.90;;;;;;5096076;28;20117;-77
2022/10/02 08:14:18;;;;;;;11.40;2.33;;;14.60;99.90;;;;;;5078218;28;20180;-78
2022/10/02 08:16:49;;;;;;;4.13;1.40;;;14.70;99.90;;;;;;5060916;28;20052;-78
2022/10/02 08:19:21;;;;;;;7.90;1.58;;;14.70;99.90;;;;;;5079480;28;20036;-78
2022/10/02 08:22:00;;;;;;;7.13;1.55;;;14.70;99.90;;;;;;5062699;28;20028;-78
2022/10/02 08:24:38;;;;;;;7.85;1.63;;;14.70;99.90;;;;;;5095648;28;20020;-77
2022/10/02 08:27:14;;;;;;;8.25;1.85;;;14.80;99.90;;;;;;5081046;28;20028;-79
2022/10/02 08:29:45;;;;;;;13.63;3.40;;;14.80;99.90;;;;;;5078518;28;20425;-77
2022/10/02 08:32:14;;;;;;;10.90;1.73;;;14.90;99.90;;;;;;5061992;28;20024;-78
2022/10/02 08:34:43;;;;;;;7.57;1.92;;;15.10;99.90;;;;;;5079841;28;20025;-77
2022/10/02 08:37:12;;;;;;;8.45;1.75;;;15.10;99.90;;;;;;5093059;28;20717;-77
2022/10/02 08:39:56;;;;;;;10.25;1.90;;;15.20;99.90;;;;;;5078827;28;20020;-78
2022/10/02 08:42:47;;;;;;;9.35;1.48;;;15.30;99.90;;;;;;5094857;28;20029;-79
2022/10/02 08:45:32;;;;;;;6.38;1.45;;;15.40;99.90;;;;;;5063884;28;20020;-78
2022/10/02 08:48:38;;;;;;;9.70;1.60;;;15.50;99.90;;;;;;5060336;28;20032;-79
2022/10/02 08:51:16;;;;;;;5.78;1.35;;;15.70;99.90;;;;;;5079356;28;20055;-78
2022/10/02 08:54:04;;;;;;;5.63;1.10;;;15.80;99.90;;;;;;5077905;28;20112;-77
2022/10/02 08:56:48;;;;;;;4.88;0.93;;;15.90;99.90;;;;;;5058500;28;20046;-78
2022/10/02 08:59:25;;;;;;;8.93;2.05;;;16.00;99.90;;;;;;5094586;28;20112;-78
2022/10/02 09:02:28;;;;;;;6.78;1.60;;;15.90;99.90;;;;;;5079000;28;20119;-78
2022/10/02 09:05:32;;;;;;;5.32;1.20;;;16.00;99.90;;;;;;5058952;28;20081;-78
2022/10/02 09:08:28;;;;;;;8.13;1.25;;;16.30;99.90;;;;;;5059413;28;20024;-79
2022/10/02 09:11:18;;;;;;;5.88;1.88;;;16.60;99.90;;;;;;5076096;28;20039;-78
2022/10/02 09:14:09;;;;;;;8.32;1.48;;;16.70;99.90;;;;;;5080014;28;20474;-78
2022/10/02 09:16:50;;;;;;;7.35;1.92;;;16.80;99.90;;;;;;5096730;28;20051;-78
2022/10/02 09:19:43;;;;;;;5.05;1.02;;;16.80;99.90;;;;;;5072813;28;20025;-78
2022/10/02 09:22:31;;;;;;;7.38;1.70;;;16.80;99.90;;;;;;5076028;28;20028;-78
2022/10/02 09:25:37;;;;;;;9.95;2.17;;;16.60;99.90;;;;;;5068441;28;20032;-79
2022/10/02 09:28:16;;;;;;;11.65;2.40;;;16.40;99.90;;;;;;5064779;28;20028;-79
2022/10/02 09:31:02;;;;;;;7.07;1.48;;;16.20;99.90;;;;;;5077852;28;20073;-77
2022/10/02 09:34:09;;;;;;;5.30;1.00;;;16.00;99.90;;;;;;5076157;28;20054;-78
2022/10/02 09:36:50;;;;;;;11.68;1.95;;;15.90;99.90;;;;;;5048590;28;20036;-79
2022/10/02 09:39:32;;;;;;;9.93;2.15;;;16.00;99.90;;;;;;5078566;28;20097;-77
2022/10/02 09:42:28;;;;;;;8.38;2.03;;;16.00;99.90;;;;;;5078883;28;20085;-78
2022/10/02 09:45:16;;;;;;;10.80;1.98;;;16.00;99.90;;;;;;5058445;28;20037;-77
2022/10/02 09:48:08;;;;;;;9.90;1.95;;;16.00;99.90;;;;;;5077873;28;20533;-78
2022/10/02 09:50:59;;;;;;;8.55;2.33;;;16.00;99.90;;;;;;5076623;28;20464;-78
2022/10/02 09:53:37;;;;;;;9.27;2.50;;;16.10;99.90;;;;;;5017812;28;20035;-77
2022/10/02 09:56:21;;;;;;;5.60;1.70;;;16.20;99.90;;;;;;5093989;28;20027;-78
2022/10/02 09:59:20;;;;;;;8.50;1.80;;;16.20;99.90;;;;;;5076877;28;20028;-77
2022/10/02 10:02:08;;;;;;;6.38;1.17;;;16.30;99.90;;;;;;5058429;28;20074;-78
2022/10/02 10:04:45;;;;;;;8.75;2.00;;;16.40;99.90;;;;;;5076055;28;20029;-77
2022/10/02 10:07:51;;;;;;;9.00;1.77;;;16.60;99.90;;;;;;5062970;28;20032;-77
2022/10/02 10:10:42;;;;;;;7.43;1.63;;;16.80;99.90;;;;;;5057656;28;20021;-78
2022/10/02 10:13:26;;;;;;;4.60;0.90;;;16.70;99.90;;;;;;5065203;28;20020;-77
2022/10/02 10:16:17;;;;;;;9.85;1.65;;;16.70;99.90;;;;;;5059584;28;21650;-77
2022/10/02 10:18:55;;;;;;;7.55;1.67;;;16.70;99.90;;;;;;5076840;28;20043;-78
2022/10/02 10:21:42;;;;;;;6.93;1.70;;;16.70;99.90;;;;;;5064908;28;20024;-78
2022/10/02 10:24:17;;;;;;;5.10;1.10;;;16.60;99.90;;;;;;5060686;28;20465;-78
2022/10/02 10:27:07;;;;;;;7.40;1.45;;;16.50;99.90;;;;;;5072326;28;20024;-78
2022/10/02 10:30:12;;;;;;;7.85;1.60;;;16.40;99.90;;;;;;5076806;28;20031;-78
2022/10/02 10:32:52;;;;;;;6.03;1.38;;;16.40;99.90;;;;;;5077617;28;20411;-78
2022/10/02 10:35:36;;;;;;;7.88;1.50;;;16.50;99.90;;;;;;5080586;28;20028;-78
2022/10/02 10:41:18;;;;;;;5.03;1.30;;;16.70;99.90;;;;;;5007315;28;20030;-78
2022/10/02 10:43:58;;;;;;;9.07;1.83;;;17.00;99.90;;;;;;5071420;28;20552;-78
2022/10/02 10:46:53;;;;;;;6.70;1.38;;;17.10;99.90;;;;;;5094270;28;20032;-77
2022/10/02 10:50:03;;;;;;;5.97;1.40;;;17.10;99.90;;;;;;5097460;28;20036;-78
2022/10/02 10:53:03;;;;;;;7.35;1.30;;;17.10;99.90;;;;;;5020765;28;20457;-77
2022/10/02 10:55:33;;;;;;;6.07;1.67;;;17.10;99.90;;;;;;5064876;28;20022;-79
2022/10/02 10:58:13;;;;;;;7.53;1.50;;;17.10;99.90;;;;;;5061510;28;20072;-78
2022/10/02 11:01:07;;;;;;;10.48;2.00;;;17.30;99.90;;;;;;5082383;28;20059;-77
2022/10/02 11:04:12;;;;;;;5.50;1.23;;;17.60;99.90;;;;;;5082898;28;20029;-79
2022/10/02 11:07:01;;;;;;;14.15;2.42;;;18.00;99.90;;;;;;5083029;28;20100;-76
2022/10/02 11:09:55;;;;;;;9.65;1.98;;;18.00;99.90;;;;;;5062092;28;20114;-79
2022/10/02 11:12:49;;;;;;;7.03;1.42;;;17.90;99.90;;;;;;5097285;27;20070;-79
2022/10/02 11:15:37;;;;;;;4.70;1.23;;;17.90;99.90;;;;;;5081342;28;20146;-76
2022/10/02 11:18:21;;;;;;;9.05;1.58;;;17.90;99.90;;;;;;5081049;28;20028;-75
2022/10/02 11:21:19;;;;;;;8.50;1.73;;;17.70;99.90;;;;;;5079161;28;20726;-76
2022/10/02 11:23:50;;;;;;;8.68;1.52;;;17.90;99.90;;;;;;5017422;28;20066;-76
2022/10/02 11:26:27;;;;;;;7.68;1.63;;;17.70;99.90;;;;;;5080783;28;20165;-77
2022/10/02 11:28:58;;;;;;;10.15;1.90;;;17.50;99.90;;;;;;5081096;28;20021;-77
2022/10/02 11:31:28;;;;;;;7.38;1.88;;;17.40;99.90;;;;;;5079437;28;20027;-77
2022/10/02 11:33:54;;;;;;;8.93;1.85;;;17.30;99.90;;;;;;5063282;28;20131;-76
2022/10/02 11:36:40;;;;;;;8.02;1.80;;;17.30;99.90;;;;;;5065858;28;20020;-77
2022/10/02 11:39:06;;;;;;;9.85;1.95;;;17.40;99.90;;;;;;5096263;28;20033;-77
2022/10/02 11:41:42;;;;;;;8.00;2.05;;;17.70;99.90;;;;;;5068197;28;20909;-77
2022/10/02 11:44:33;;;;;;;8.25;1.98;;;17.70;99.90;;;;;;5078149;28;20021;-77
2022/10/02 11:47:33;;;;;;;9.43;1.92;;;18.00;99.90;;;;;;5080696;28;20017;-76
2022/10/02 11:50:24;;;;;;;6.93;1.77;;;18.10;99.90;;;;;;5062755;28;20024;-76
2022/10/02 11:53:03;;;;;;;13.95;2.90;;;18.10;99.90;;;;;;5070443;28;20016;-77
2022/10/02 11:55:48;;;;;;;9.63;1.92;;;18.10;99.90;;;;;;5071721;28;20039;-77
2022/10/02 11:58:24;;;;;;;10.63;1.75;;;18.10;99.90;;;;;;5079510;28;20503;-77
2022/10/02 12:01:10;;;;;;;7.70;2.28;;;18.20;99.90;;;;;;5061630;28;20062;-77
2022/10/02 12:03:47;;;;;;;7.95;2.53;;;18.30;99.90;;;;;;5073770;28;20028;-78
2022/10/02 12:06:32;;;;;;;12.90;2.17;;;18.20;99.90;;;;;;5079538;28;20036;-76
2022/10/02 12:09:22;;;;;;;13.50;2.40;;;18.30;99.90;;;;;;5060374;28;20027;-76
2022/10/02 12:12:31;;;;;;;7.88;1.85;;;18.30;99.90;;;;;;5078249;28;20029;-78
2022/10/02 12:15:51;;;;;;;6.97;1.88;;;18.40;99.90;;;;;;5059513;28;20083;-78
2022/10/02 12:18:22;;;;;;;6.05;1.50;;;18.50;99.90;;;;;;4988536;28;20550;-77
2022/10/02 12:27:38;;;;;;;11.02;2.95;;;18.00;99.90;;;;;;5079368;28;20092;-77
2022/10/02 12:30:09;;;;;;;7.68;2.20;;;17.80;99.90;;;;;;5026017;28;20040;-77
2022/10/02 12:32:44;;;;;;;10.27;2.95;;;17.70;99.90;;;;;;5061167;28;20105;-76
2022/10/02 12:35:28;;;;;;;9.05;2.40;;;17.70;99.90;;;;;;5064309;28;20624;-77
2022/10/02 12:38:17;;;;;;;11.73;3.03;;;17.70;99.90;;;;;;5060539;28;20020;-78
2022/10/02 12:40:57;;;;;;;10.25;2.67;;;17.80;99.90;;;;;;5079969;28;20032;-77
2022/10/02 12:43:52;;;;;;;9.05;2.05;;;17.90;99.90;;;;;;5063023;28;20032;-76
2022/10/02 12:46:30;;;;;;;9.55;2.10;;;18.10;99.90;;;;;;5098110;28;20028;-75
2022/10/02 12:49:14;;;;;;;8.20;2.22;;;18.30;99.90;;;;;;5062289;28;20123;-78
2022/10/02 12:51:49;;;;;;;8.40;2.35;;;18.20;99.90;;;;;;5078760;28;20034;-78
2022/10/02 12:54:32;;;;;;;13.65;2.67;;;18.60;99.90;;;;;;5078618;28;20456;-77
2022/10/02 13:00:19;;;;;;;6.32;1.92;;;19.50;99.90;;;;;;5077438;28;20051;-77
2022/10/02 13:03:23;;;;;;;7.53;1.77;;;19.50;99.90;;;;;;5060582;28;20032;-77
2022/10/02 13:05:50;;;;;;;8.82;2.33;;;;;;;;;;5076982;28;20063;-77
2022/10/02 13:08:27;;;;;;;9.43;2.75;;;19.60;99.90;;;;;;5078555;28;20554;-77
2022/10/02 13:10:56;;;;;;;10.20;2.03;;;19.80;99.90;;;;;;5077370;28;20111;-77
2022/10/02 13:13:37;;;;;;;9.75;2.38;;;19.80;99.90;;;;;;5066697;28;20032;-77
2022/10/02 13:16:21;;;;;;;12.65;3.00;;;19.90;99.90;;;;;;5077194;28;20504;-75
2022/10/02 13:18:57;;;;;;;10.18;2.63;;;20.20;99.90;;;;;;5077009;28;20032;-77
2022/10/02 13:21:46;;;;;;;9.20;2.25;;;20.20;99.90;;;;;;5075782;28;20127;-77
2022/10/02 13:24:13;;;;;;;10.98;2.45;;;20.30;99.90;;;;;;5059892;28;20071;-77
2022/10/02 13:27:01;;;;;;;7.75;2.00;;;20.00;99.90;;;;;;5059614;28;21613;-80
2022/10/02 13:30:00;;;;;;;9.63;2.30;;;19.70;99.90;;;;;;5064242;28;20035;-76
2022/10/02 13:32:47;;;;;;;9.85;2.90;;;19.40;99.90;;;;;;5080313;28;20467;-76
2022/10/02 13:35:38;;;;;;;6.97;2.25;;;19.40;99.90;;;;;;5078725;28;20032;-77
2022/10/02 13:38:44;;;;;;;10.48;2.72;;;19.50;99.90;;;;;;5073389;28;20040;-76
2022/10/02 13:41:34;;;;;;;9.88;2.58;;;19.40;99.90;;;;;;5058536;28;20086;-77
2022/10/02 13:44:24;;;;;;;6.80;2.10;;;19.20;99.90;;;;;;5075869;28;20037;-78
2022/10/02 13:47:26;;;;;;;7.97;2.22;;;19.30;99.90;;;;;;5068607;28;20178;-77
2022/10/02 13:50:29;;;;;;;12.95;2.60;;;19.50;99.90;;;;;;5077295;28;20024;-78
2022/10/02 13:53:17;;;;;;;10.85;2.70;;;19.30;99.90;;;;;;5064549;28;20036;-76
2022/10/02 13:56:01;;;;;;;11.15;2.70;;;18.90;99.90;;;;;;5074245;28;20036;-78
2022/10/02 13:58:36;;;;;;;8.23;2.20;;;18.70;99.90;;;;;;5079032;28;20024;-78
2022/10/02 14:01:07;;;;;;;8.75;2.30;;;18.50;99.90;;;;;;5063750;28;20033;-78
2022/10/02 14:03:51;;;;;;;11.73;3.00;;;18.30;99.90;;;;;;5063613;28;20429;-76
2022/10/02 14:06:29;;;;;;;9.48;2.40;;;18.30;99.90;;;;;;5076756;28;20432;-77
2022/10/02 14:09:14;;;;;;;11.80;2.72;;;18.40;99.90;;;;;;5059053;28;20036;-77
2022/10/02 14:11:55;;;;;;;10.95;2.53;;;18.60;99.90;;;;;;5076529;28;20032;-77